| time (UTC) | temp F | wind direction | speed knots | gust knots | rain 1hr in | rain 24hr in | rain mn in | humidity % | barometer mb |
| 20260906163314 | 95 | 348 | 1.7 | 3.5 | 0.00 | 0.00 | 0.00 | 49 | 1016.9 |
| 20260906160345 | 94 | 136 | 3.5 | 7.0 | 0.00 | 0.00 | 0.00 | 50 | 1017.0 |
| 20260906153330 | 92 | 164 | 0.9 | 5.2 | 0.00 | 0.00 | 0.00 | 54 | 1016.8 |
| 20260906150316 | 90 | 355 | 0.9 | 2.6 | 0.00 | 0.00 | 0.00 | 54 | 1016.8 |
| 20260906143326 | 88 | 164 | 0.9 | 2.6 | 0.00 | 0.00 | 0.00 | 59 | 1016.7 |
| 20260906140329 | 86 | 90 | 0.0 | 0.0 | 0.00 | 0.00 | 0.00 | 63 | 1016.6 |
| 20260906133317 | 79 | 90 | 0.0 | 0.0 | 0.00 | 0.00 | 0.00 | 79 | 1016.6 |
| 20260906130330 | 72 | 90 | 0.0 | 0.0 | 0.00 | 0.00 | 0.00 | 88 | 1016.5 |
| 20260906123314 | 71 | 90 | 0.0 | 0.0 | 0.00 | 0.00 | 0.00 | 90 | 1015.9 |
| 20260906120318 | 70 | 90 | 0.0 | 0.0 | 0.00 | 0.00 | 0.00 | 90 | 1015.5 |
| 20260906113328 | 70 | 90 | 0.0 | 0.0 | 0.00 | 0.00 | 0.00 | 88 | 1015.2 |
| 20260906110313 | 71 | 90 | 0.0 | 0.0 | 0.00 | 0.00 | 0.00 | 88 | 1015.1 |
| 20260906103322 | 71 | 90 | 0.0 | 0.0 | 0.00 | 0.00 | 0.00 | 87 | 1015.1 |
| 20260906100337 | 71 | 90 | 0.0 | 0.0 | 0.00 | 0.00 | 0.00 | 87 | 1015.0 |
| 20260906093340 | 71 | 90 | 0.0 | 0.0 | 0.00 | 0.00 | 0.00 | 88 | 1014.8 |
| 20260906090331 | 72 | 90 | 0.0 | 0.0 | 0.00 | 0.00 | 0.00 | 88 | 1014.6 |
| 20260906083319 | 73 | 90 | 0.0 | 0.0 | 0.00 | 0.00 | 0.00 | 87 | 1014.7 |
| 20260906080321 | 74 | 90 | 0.0 | 0.0 | 0.00 | 0.00 | 0.00 | 86 | 1014.7 |
| 20260906073321 | 74 | 90 | 0.0 | 0.0 | 0.00 | 0.00 | 0.00 | 84 | 1014.7 |
| 20260906070323 | 75 | 90 | 0.0 | 0.0 | 0.00 | 0.00 | 0.00 | 82 | 1014.8 |
| 20260906063314 | 76 | 90 | 0.0 | 0.0 | 0.00 | 0.00 | 0.00 | 80 | 1015.0 |
| 20260906060317 | 77 | 90 | 0.0 | 0.0 | 0.00 | 0.00 | 0.00 | 79 | 1014.9 |
| 20260906053317 | 78 | 90 | 0.0 | 0.0 | 0.00 | 0.00 | 0.00 | 76 | 1015.0 |
| 20260906050350 | 79 | 90 | 0.0 | 0.0 | 0.00 | 0.00 | 0.00 | 73 | 1015.0 |
| 20260906043314 | 80 | 90 | 0.0 | 0.0 | 0.00 | 0.00 | 0.00 | 67 | 1015.0 |
| 20260906040317 | 79 | 117 | 0.0 | 0.0 | 0.00 | 0.00 | 0.00 | 69 | 1015.0 |
| 20260906033328 | 79 | 117 | 0.0 | 0.0 | 0.00 | 0.00 | 0.00 | 71 | 1015.0 |
| 20260906030312 | 81 | 117 | 0.0 | 0.0 | 0.00 | 0.00 | 0.00 | 68 | 1014.9 |
| 20260906023313 | 82 | 117 | 0.0 | 0.0 | 0.00 | 0.00 | 0.00 | 66 | 1014.7 |
| 20260906020327 | 84 | 117 | 0.0 | 0.0 | 0.00 | 0.00 | 0.00 | 61 | 1014.1 |
| 20260906013317 | 86 | 73 | 0.0 | 0.9 | 0.00 | 0.00 | 0.00 | 57 | 1013.8 |
| 20260906010321 | 88 | 34 | 1.7 | 3.5 | 0.00 | 0.00 | 0.00 | 54 | 1013.8 |
| 20260906003323 | 90 | 69 | 0.9 | 5.2 | 0.00 | 0.00 | 0.00 | 53 | 1013.8 |
| 20260906000336 | 95 | 56 | 0.9 | 4.3 | 0.00 | 0.00 | 0.00 | 45 | 1013.5 |
| 20260905233322 | 99 | 311 | 0.9 | 1.7 | 0.00 | 0.00 | 0.00 | 39 | 1013.3 |
| 20260905230312 | 100 | 330 | 1.7 | 3.5 | 0.00 | 0.00 | 0.00 | 39 | 1013.2 |
| 20260905223321 | 102 | 296 | 0.9 | 3.5 | 0.00 | 0.00 | 0.00 | 35 | 1013.0 |
| 20260905220325 | 101 | 308 | 0.0 | 2.6 | 0.00 | 0.00 | 0.00 | 38 | 1013.3 |
| 20260905213311 | 101 | 29 | 1.7 | 4.3 | 0.00 | 0.00 | 0.00 | 39 | 1013.5 |
| 20260905210346 | 100 | 114 | 0.9 | 3.5 | 0.00 | 0.00 | 0.00 | 37 | 1013.9 |
| 20260905203329 | 99 | 245 | 1.7 | 6.1 | 0.00 | 0.00 | 0.00 | 39 | 1014.2 |
| 20260905200319 | 99 | 298 | 2.6 | 7.8 | 0.00 | 0.00 | 0.00 | 39 | 1014.7 |
| 20260905193332 | 99 | 266 | 1.7 | 4.3 | 0.00 | 0.00 | 0.00 | 40 | 1015.0 |
| 20260905190316 | 98 | 198 | 2.6 | 4.3 | 0.00 | 0.00 | 0.00 | 41 | 1015.6 |
| 20260905183321 | 97 | 278 | 2.6 | 6.1 | 0.00 | 0.00 | 0.00 | 44 | 1016.1 |
| 20260905180334 | 96 | 80 | 2.6 | 7.8 | 0.00 | 0.00 | 0.00 | 48 | 1016.4 |
| 20260905173319 | 95 | 311 | 2.6 | 7.8 | 0.00 | 0.00 | 0.00 | 50 | 1016.7 |
| 20260905170338 | 94 | 299 | 2.6 | 5.2 | 0.00 | 0.00 | 0.00 | 49 | 1017.1 |